createdAt,value
2018-09-05T00:00:11.551Z,38.60
2018-09-05T00:02:41.355Z,37.63
2018-09-05T00:05:11.319Z,38.20
2018-09-05T00:07:41.049Z,38.20
2018-09-05T00:10:10.816Z,39.17
2018-09-05T00:12:40.502Z,40.17
2018-09-05T00:15:10.264Z,36.13
2018-09-05T00:17:40.065Z,38.77
2018-09-05T00:20:09.838Z,40.00
2018-09-05T00:22:39.525Z,37.50
2018-09-05T00:25:09.338Z,39.23
2018-09-05T00:27:39.204Z,36.40
2018-09-05T00:30:09.004Z,36.93
2018-09-05T00:32:38.735Z,40.70
2018-09-05T00:35:08.512Z,35.40
2018-09-05T00:37:38.328Z,33.50
2018-09-05T00:40:08.115Z,37.63
2018-09-05T00:42:37.875Z,37.50
2018-09-05T00:45:07.700Z,35.60
2018-09-05T00:47:37.508Z,38.57
2018-09-05T00:52:30.241Z,40.00
2018-09-05T00:55:00.057Z,37.63
2018-09-05T00:57:32.826Z,37.87
2018-09-05T01:00:02.768Z,35.07
2018-09-05T01:02:32.512Z,34.47
2018-09-05T01:05:02.294Z,36.80
2018-09-05T01:07:32.174Z,37.10
2018-09-05T01:10:01.958Z,38.07
2018-09-05T01:12:31.643Z,36.33
2018-09-05T01:15:01.374Z,37.57
2018-09-05T01:17:31.082Z,37.67
2018-09-05T01:20:00.778Z,35.30
2018-09-05T01:22:30.539Z,37.50
2018-09-05T01:25:00.324Z,36.93
2018-09-05T01:27:30.005Z,38.27
2018-09-05T01:29:59.666Z,36.50
2018-09-05T01:32:29.434Z,38.20
2018-09-05T01:34:59.231Z,36.23
2018-09-05T01:37:29.097Z,35.37
2018-09-05T01:39:58.877Z,38.40
2018-09-05T01:42:28.686Z,37.40
2018-09-05T01:44:58.400Z,35.37
2018-09-05T01:47:28.130Z,36.27
2018-09-05T01:49:58.016Z,35.67
2018-09-05T01:52:27.814Z,35.63
2018-09-05T01:54:57.662Z,35.10
2018-09-05T01:57:27.394Z,35.90
2018-09-05T01:59:57.120Z,35.30
2018-09-05T02:02:26.817Z,32.20
2018-09-05T02:04:57.077Z,35.90
2018-09-05T02:07:26.832Z,36.27
2018-09-05T02:09:56.702Z,36.53
2018-09-05T02:12:26.381Z,35.50
2018-09-05T02:14:56.045Z,33.60
2018-09-05T02:17:25.729Z,36.87
2018-09-05T02:19:55.477Z,34.00
2018-09-05T02:22:25.185Z,33.43
2018-09-05T02:24:55.013Z,34.67
2018-09-05T02:27:24.744Z,31.87
2018-09-05T02:29:54.549Z,35.03
2018-09-05T02:32:24.285Z,36.27
2018-09-05T02:34:54.100Z,36.17
2018-09-05T02:37:23.881Z,35.80
2018-09-05T02:39:53.628Z,36.90
2018-09-05T02:42:23.481Z,36.50
2018-09-05T02:44:53.338Z,32.40
2018-09-05T02:47:23.138Z,34.60
2018-09-05T02:49:52.948Z,33.10
2018-09-05T02:52:22.676Z,33.77
2018-09-05T02:54:52.449Z,33.00
2018-09-05T02:57:22.317Z,37.00
2018-09-05T02:59:51.984Z,38.30
2018-09-05T03:02:22.560Z,40.33
2018-09-05T03:04:52.235Z,36.60
2018-09-05T03:07:21.910Z,39.90
2018-09-05T03:09:51.651Z,38.50
2018-09-05T03:12:22.344Z,38.90
2018-09-05T03:14:52.934Z,39.10
2018-09-05T03:17:22.855Z,41.40
2018-09-05T03:19:52.626Z,39.80
2018-09-05T03:22:22.328Z,38.27
2018-09-05T03:24:52.135Z,34.37
2018-09-05T03:27:21.886Z,30.20
2018-09-05T03:29:51.604Z,31.00
2018-09-05T03:32:21.417Z,32.93
2018-09-05T03:34:51.027Z,34.87
2018-09-05T03:37:20.760Z,33.87
2018-09-05T03:39:50.481Z,34.60
2018-09-05T03:42:20.173Z,33.80
2018-09-05T03:44:49.859Z,34.53
2018-09-05T03:47:19.544Z,34.03
2018-09-05T03:49:49.295Z,32.63
2018-09-05T03:52:19.000Z,32.93
2018-09-05T03:54:48.761Z,34.10
2018-09-05T03:57:18.440Z,34.60
2018-09-05T03:59:48.255Z,33.67
2018-09-05T04:02:17.970Z,33.20
2018-09-05T04:04:47.685Z,32.27
2018-09-05T04:07:17.485Z,34.50
2018-09-05T04:09:47.213Z,34.37
2018-09-05T04:12:18.575Z,31.70
2018-09-05T04:14:48.313Z,33.10
2018-09-05T04:17:18.145Z,34.47
2018-09-05T04:19:47.959Z,32.67
2018-09-05T04:22:17.725Z,30.97
2018-09-05T04:24:47.626Z,30.23
2018-09-05T04:27:17.322Z,30.70
2018-09-05T04:29:47.072Z,31.00
2018-09-05T04:32:16.821Z,28.90
2018-09-05T04:34:46.729Z,28.70
2018-09-05T04:37:16.440Z,30.23
2018-09-05T04:39:46.538Z,28.63
2018-09-05T04:42:16.243Z,28.90
2018-09-05T04:44:46.002Z,29.33
2018-09-05T04:47:15.771Z,28.70
2018-09-05T04:49:45.522Z,28.10
2018-09-05T04:52:15.264Z,29.30
2018-09-05T04:54:44.947Z,28.03
2018-09-05T04:57:14.798Z,27.50
2018-09-05T04:59:44.482Z,28.70
2018-09-05T05:02:14.317Z,27.70
2018-09-05T05:04:45.365Z,28.90
2018-09-05T05:07:15.053Z,27.10
2018-09-05T05:09:45.899Z,26.20
2018-09-05T05:12:15.588Z,27.30
2018-09-05T05:14:45.357Z,26.67
2018-09-05T05:17:15.254Z,28.50
2018-09-05T05:19:44.993Z,26.07
2018-09-05T05:22:14.779Z,28.10
2018-09-05T05:24:44.493Z,27.70
2018-09-05T05:27:14.277Z,26.33
2018-09-05T05:29:44.028Z,28.90
2018-09-05T05:32:14.534Z,27.17
2018-09-05T05:34:44.418Z,27.87
2018-09-05T05:37:14.318Z,25.17
2018-09-05T05:39:44.341Z,26.87
2018-09-05T05:42:14.205Z,25.20
2018-09-05T05:44:43.907Z,26.07
2018-09-05T05:47:13.828Z,26.30
2018-09-05T05:49:45.316Z,28.03
2018-09-05T05:52:15.189Z,25.80
2018-09-05T05:54:45.035Z,25.50
2018-09-05T05:57:14.770Z,29.13
2018-09-05T06:02:10.341Z,24.67
2018-09-05T06:04:40.342Z,26.57
2018-09-05T06:07:10.279Z,26.57
2018-09-05T06:09:40.253Z,26.50
2018-09-05T06:12:10.251Z,26.23
2018-09-05T06:14:39.945Z,27.03
2018-09-05T06:17:09.897Z,27.87
2018-09-05T06:19:39.686Z,27.40
2018-09-05T06:22:09.471Z,29.33
2018-09-05T06:24:39.600Z,31.10
2018-09-05T06:27:09.673Z,26.27
2018-09-05T06:29:39.459Z,29.50
2018-09-05T06:32:09.226Z,26.83
2018-09-05T06:34:39.472Z,27.43
2018-09-05T06:37:09.371Z,26.97
2018-09-05T06:39:39.288Z,26.10
2018-09-05T06:42:09.074Z,24.87
2018-09-05T06:44:38.864Z,26.00
2018-09-05T06:47:09.826Z,26.87
2018-09-05T06:49:39.586Z,23.93
2018-09-05T06:52:09.515Z,23.13
2018-09-05T06:54:39.474Z,24.60
2018-09-05T06:57:09.264Z,23.67
2018-09-05T06:59:39.220Z,23.67
2018-09-05T07:02:09.057Z,21.90
2018-09-05T07:04:39.865Z,24.87
2018-09-05T07:07:17.268Z,24.93
2018-09-05T07:09:47.176Z,24.07
2018-09-05T07:12:17.901Z,26.40
2018-09-05T07:14:47.863Z,25.57
2018-09-05T07:17:17.806Z,26.70
2018-09-05T07:19:48.076Z,26.03
2018-09-05T07:22:18.066Z,25.57
2018-09-05T07:24:48.297Z,27.60
2018-09-05T07:27:18.080Z,27.30
2018-09-05T07:29:47.979Z,25.77
2018-09-05T07:32:17.881Z,26.90
2018-09-05T07:34:55.870Z,29.30
2018-09-05T07:37:25.632Z,28.73
2018-09-05T07:39:59.037Z,27.30
2018-09-05T07:42:28.877Z,29.20
2018-09-05T07:44:58.672Z,28.60
2018-09-05T07:47:28.507Z,30.53
2018-09-05T07:49:58.252Z,32.67
2018-09-05T07:52:28.262Z,31.57
2018-09-05T07:54:58.066Z,33.83
2018-09-05T07:57:28.099Z,31.43
2018-09-05T07:59:57.783Z,32.87
2018-09-05T08:02:27.676Z,33.47
2018-09-05T08:04:57.475Z,34.00
2018-09-05T08:07:27.232Z,34.77
2018-09-05T08:09:57.085Z,33.17
2018-09-05T08:12:26.773Z,33.80
2018-09-05T08:14:56.563Z,34.07
2018-09-05T08:17:26.323Z,36.53
2018-09-05T08:19:56.059Z,35.70
2018-09-05T08:22:25.943Z,35.77
2018-09-05T08:24:55.672Z,34.30
2018-09-05T08:27:25.351Z,34.70
2018-09-05T08:29:55.099Z,33.60
2018-09-05T08:32:24.952Z,32.50
2018-09-05T08:34:54.832Z,33.03
2018-09-05T08:37:24.683Z,34.97
2018-09-05T08:39:54.247Z,36.03
2018-09-05T08:42:24.204Z,36.20
2018-09-05T08:44:54.089Z,37.13
2018-09-05T08:47:23.679Z,33.30
2018-09-05T08:49:53.396Z,32.63
2018-09-05T08:52:23.125Z,35.03
2018-09-05T08:54:53.036Z,35.90
2018-09-05T08:57:22.825Z,35.30
2018-09-05T08:59:52.770Z,34.50
2018-09-05T09:02:22.846Z,38.20
2018-09-05T09:04:52.623Z,36.40
2018-09-05T09:07:22.423Z,36.23
2018-09-05T09:09:52.176Z,33.70
2018-09-05T09:12:22.171Z,34.70
2018-09-05T09:14:51.968Z,34.97
2018-09-05T09:17:28.158Z,32.70
2018-09-05T09:19:57.872Z,34.80
2018-09-05T09:22:27.609Z,35.27
2018-09-05T09:24:57.323Z,36.60
2018-09-05T09:27:27.219Z,33.20
2018-09-05T09:29:56.877Z,35.10
2018-09-05T09:32:26.789Z,35.23
2018-09-05T09:34:56.539Z,35.13
2018-09-05T09:37:26.330Z,34.47
2018-09-05T09:39:56.144Z,33.67
2018-09-05T09:42:26.234Z,33.50
2018-09-05T09:44:55.952Z,31.43
2018-09-05T09:47:25.866Z,34.33
2018-09-05T09:49:55.645Z,31.50
2018-09-05T09:52:25.356Z,34.17
2018-09-05T09:54:55.089Z,30.60
2018-09-05T09:57:25.166Z,31.37
2018-09-05T09:59:55.221Z,31.80
2018-09-05T10:02:30.015Z,34.20
2018-09-05T10:05:04.751Z,31.60
2018-09-05T10:07:39.613Z,30.70
2018-09-05T10:10:14.737Z,30.07
2018-09-05T10:12:49.729Z,32.13
2018-09-05T10:15:24.442Z,28.80
2018-09-05T10:17:59.464Z,31.83
2018-09-05T10:20:29.194Z,29.60
2018-09-05T10:22:59.037Z,29.00
2018-09-05T10:25:28.760Z,29.73
2018-09-05T10:27:58.437Z,30.20
2018-09-05T10:30:28.132Z,30.37
2018-09-05T10:32:57.761Z,29.07
2018-09-05T10:35:27.457Z,28.80
2018-09-05T10:37:57.254Z,29.87
2018-09-05T10:40:27.039Z,27.93
2018-09-05T10:42:56.735Z,29.37
2018-09-05T10:45:27.681Z,29.67
2018-09-05T10:47:58.746Z,28.50
2018-09-05T10:50:28.415Z,27.80
2018-09-05T10:52:58.220Z,26.77
2018-09-05T10:55:27.913Z,27.50
2018-09-05T10:57:57.776Z,25.10
2018-09-05T11:00:27.490Z,26.10
2018-09-05T11:02:57.394Z,24.00
2018-09-05T11:05:27.107Z,22.57
2018-09-05T11:07:56.917Z,24.00
2018-09-05T11:10:26.739Z,22.40
2018-09-05T11:12:56.510Z,21.40
2018-09-05T11:15:26.245Z,20.47
2018-09-05T11:17:56.399Z,20.10
2018-09-05T11:20:26.173Z,21.73
2018-09-05T11:22:55.999Z,21.97
2018-09-05T11:25:25.793Z,20.70
2018-09-05T11:27:55.568Z,19.87
2018-09-05T11:30:25.438Z,17.40
2018-09-05T11:32:55.211Z,18.73
2018-09-05T11:35:25.075Z,19.77
2018-09-05T11:42:32.922Z,21.97
2018-09-05T11:45:02.862Z,21.53
2018-09-05T11:47:32.613Z,21.27
2018-09-05T11:50:02.398Z,20.80
2018-09-05T11:52:32.104Z,20.90
2018-09-05T11:55:02.024Z,21.83
2018-09-05T11:57:31.809Z,20.13
2018-09-05T12:00:01.571Z,20.73
2018-09-05T12:02:31.273Z,18.00
2018-09-05T12:05:00.996Z,18.50
2018-09-05T12:07:30.681Z,19.17
2018-09-05T12:10:01.085Z,17.60
2018-09-05T12:12:30.933Z,17.50
2018-09-05T12:15:00.728Z,18.70
2018-09-05T12:17:30.749Z,18.77
2018-09-05T12:20:00.853Z,17.33
2018-09-05T12:22:30.525Z,18.87
2018-09-05T12:25:00.202Z,18.27
2018-09-05T12:27:29.939Z,16.13
2018-09-05T12:29:59.622Z,17.70
2018-09-05T12:32:30.339Z,17.60
2018-09-05T12:35:00.274Z,19.40
2018-09-05T12:37:30.076Z,19.53
2018-09-05T12:39:59.778Z,18.10
2018-09-05T12:42:29.551Z,17.87
2018-09-05T12:44:59.284Z,20.13
2018-09-05T12:47:29.000Z,20.13
2018-09-05T12:49:58.798Z,18.13
2018-09-05T12:52:28.670Z,17.47
2018-09-05T12:54:58.375Z,17.90
2018-09-05T12:57:28.190Z,18.10
2018-09-05T12:59:58.436Z,19.50
2018-09-05T13:02:28.247Z,17.30
2018-09-05T13:04:57.958Z,19.70
2018-09-05T13:07:27.992Z,16.87
2018-09-05T13:09:57.818Z,19.80
2018-09-05T13:12:27.612Z,19.40
2018-09-05T13:14:57.551Z,16.37
2018-09-05T13:17:27.289Z,15.70
2018-09-05T13:19:57.051Z,16.27
2018-09-05T13:22:27.045Z,14.50
2018-09-05T13:24:56.894Z,13.80
2018-09-05T13:27:26.642Z,13.97
2018-09-05T13:29:56.485Z,13.57
2018-09-05T13:32:26.205Z,13.93
2018-09-05T13:34:55.937Z,14.03
2018-09-05T13:37:25.758Z,14.60
2018-09-05T13:39:55.637Z,13.30
2018-09-05T13:42:25.663Z,15.50
2018-09-05T13:44:55.393Z,14.80
2018-09-05T13:47:25.192Z,13.37
2018-09-05T13:49:55.065Z,15.77
2018-09-05T13:52:24.842Z,14.53
2018-09-05T13:54:54.592Z,13.53
2018-09-05T13:57:24.367Z,15.83
2018-09-05T13:59:54.115Z,15.17
2018-09-05T14:02:23.878Z,15.33
2018-09-05T14:04:53.834Z,13.60
2018-09-05T14:07:24.006Z,14.70
2018-09-05T14:09:53.735Z,16.60
2018-09-05T14:12:23.694Z,13.83
2018-09-05T14:14:53.437Z,14.13
2018-09-05T14:17:23.179Z,14.40
2018-09-05T14:19:52.904Z,14.33
2018-09-05T14:22:22.686Z,13.87
2018-09-05T14:24:52.443Z,14.13
2018-09-05T14:27:22.213Z,14.07
2018-09-05T14:29:51.912Z,13.97
2018-09-05T14:32:21.883Z,14.83
2018-09-05T14:34:51.651Z,14.40
2018-09-05T14:37:21.534Z,14.80
2018-09-05T14:39:51.347Z,13.63
2018-09-05T14:42:21.155Z,13.43
2018-09-05T14:44:50.868Z,12.60
2018-09-05T14:47:20.628Z,13.60
2018-09-05T14:49:50.585Z,12.70
2018-09-05T14:52:20.452Z,12.50
2018-09-05T14:54:50.335Z,12.50
2018-09-05T14:57:20.154Z,13.20
2018-09-05T14:59:49.892Z,11.30
2018-09-05T15:02:20.490Z,12.50
2018-09-05T15:04:50.301Z,11.13
2018-09-05T15:07:20.037Z,11.77
2018-09-05T15:09:49.758Z,13.30
2018-09-05T15:12:19.574Z,11.53
2018-09-05T15:14:49.254Z,11.37
2018-09-05T15:17:19.069Z,11.57
2018-09-05T15:19:48.854Z,13.60
2018-09-05T15:22:18.809Z,10.03
2018-09-05T15:24:49.108Z,11.20
2018-09-05T15:27:18.849Z,10.97
2018-09-05T15:29:48.674Z,11.33
2018-09-05T15:32:18.394Z,11.70
2018-09-05T15:34:48.502Z,10.57
2018-09-05T15:37:18.274Z,10.83
2018-09-05T15:39:48.974Z,10.40
2018-09-05T15:42:18.766Z,11.17
2018-09-05T15:44:48.568Z,11.37
2018-09-05T15:47:18.333Z,10.43
2018-09-05T15:49:48.300Z,11.10
2018-09-05T15:52:18.150Z,11.87
2018-09-05T15:54:47.889Z,11.00
2018-09-05T15:57:17.779Z,11.60
2018-09-05T15:59:47.551Z,11.37
2018-09-05T16:02:17.638Z,11.50
2018-09-05T16:04:47.441Z,10.73
2018-09-05T16:07:17.401Z,11.80
2018-09-05T16:09:47.203Z,11.80
2018-09-05T16:12:16.967Z,10.67
2018-09-05T16:14:46.690Z,11.33
2018-09-05T16:17:16.418Z,10.97
2018-09-05T16:19:46.166Z,10.93
2018-09-05T16:22:16.021Z,10.57
2018-09-05T16:24:45.800Z,11.77
2018-09-05T16:27:15.543Z,10.40
2018-09-05T16:29:45.614Z,11.17
2018-09-05T16:32:15.470Z,11.17
2018-09-05T16:34:45.353Z,13.27
2018-09-05T16:37:15.114Z,11.33
2018-09-05T16:39:44.890Z,11.40
2018-09-05T16:42:14.728Z,12.10
2018-09-05T16:44:44.580Z,12.03
2018-09-05T16:47:14.631Z,11.23
2018-09-05T16:49:44.365Z,11.90
2018-09-05T16:52:14.170Z,12.67
2018-09-05T16:54:43.992Z,13.10
2018-09-05T16:57:13.840Z,11.50
2018-09-05T16:59:49.972Z,12.23
2018-09-05T17:02:20.940Z,13.30
2018-09-05T17:04:52.099Z,12.33
2018-09-05T17:07:22.175Z,13.10
2018-09-05T17:09:51.961Z,11.80
2018-09-05T17:12:21.933Z,12.57
2018-09-05T17:14:52.832Z,13.37
2018-09-05T17:17:23.718Z,11.93
2018-09-05T17:19:53.615Z,12.30
2018-09-05T17:22:23.868Z,11.60
2018-09-05T17:24:53.731Z,12.03
2018-09-05T17:27:23.604Z,12.40
2018-09-05T17:29:53.633Z,11.70
2018-09-05T17:32:23.686Z,11.83
2018-09-05T17:34:53.472Z,12.53
2018-09-05T17:37:24.093Z,12.20
2018-09-05T17:39:54.097Z,11.00
2018-09-05T17:42:24.095Z,11.97
2018-09-05T17:44:54.073Z,11.00
2018-09-05T17:47:24.837Z,10.80
2018-09-05T17:49:54.859Z,11.90
2018-09-05T17:52:24.706Z,11.80
2018-09-05T17:54:54.443Z,11.43
2018-09-05T17:57:24.246Z,11.33
2018-09-05T17:59:54.119Z,11.17
2018-09-05T18:02:23.916Z,11.50
2018-09-05T18:04:54.126Z,12.60
2018-09-05T18:07:23.996Z,11.93
2018-09-05T18:09:53.953Z,11.67
2018-09-05T18:12:24.329Z,12.07
2018-09-05T18:14:54.361Z,12.80
2018-09-05T18:17:24.650Z,13.00
2018-09-05T18:19:54.429Z,12.03
2018-09-05T18:22:24.547Z,12.33
2018-09-05T18:24:54.977Z,13.30
2018-09-05T18:27:24.751Z,11.63
2018-09-05T18:29:54.666Z,12.33
2018-09-05T18:32:25.013Z,9.70
2018-09-05T18:34:55.320Z,11.10
2018-09-05T18:37:25.108Z,9.60
2018-09-05T18:39:55.197Z,11.43
2018-09-05T18:42:25.916Z,10.13
2018-09-05T18:44:57.559Z,10.00
2018-09-05T18:47:28.584Z,9.70
2018-09-05T18:49:59.253Z,11.47
2018-09-05T18:52:29.777Z,11.10
2018-09-05T18:54:59.784Z,10.40
2018-09-05T18:57:29.610Z,12.00
2018-09-05T18:59:59.584Z,12.20
2018-09-05T19:02:29.799Z,12.00
2018-09-05T19:04:59.563Z,12.07
2018-09-05T19:07:31.770Z,12.90
2018-09-05T19:10:01.760Z,13.20
2018-09-05T19:12:32.372Z,13.70
2018-09-05T19:15:03.143Z,13.77
2018-09-05T19:17:35.521Z,13.43
2018-09-05T19:20:05.541Z,13.67
2018-09-05T19:22:35.652Z,14.50
2018-09-05T19:25:05.396Z,14.23
2018-09-05T19:27:36.214Z,14.70
2018-09-05T19:30:06.768Z,15.13
2018-09-05T19:32:36.989Z,14.30
2018-09-05T19:35:06.851Z,15.07
2018-09-05T19:37:37.505Z,14.43
2018-09-05T19:40:08.437Z,13.90
2018-09-05T19:42:38.494Z,13.93
2018-09-05T19:45:08.991Z,15.70
2018-09-05T19:47:38.793Z,15.27
2018-09-05T19:50:08.625Z,15.80
2018-09-05T19:52:38.371Z,16.83
2018-09-05T19:55:08.320Z,17.93
2018-09-05T19:57:38.077Z,17.87
2018-09-05T20:00:07.920Z,18.67
2018-09-05T20:02:37.783Z,19.40
2018-09-05T20:05:07.687Z,19.30
2018-09-05T20:07:37.468Z,20.90
2018-09-05T20:10:07.326Z,21.30
2018-09-05T20:12:38.919Z,20.13
2018-09-05T20:15:08.742Z,22.73
2018-09-05T20:17:38.509Z,20.90
2018-09-05T20:20:08.350Z,21.20
2018-09-05T20:22:38.270Z,18.77
2018-09-05T20:25:08.127Z,16.27
2018-09-05T20:27:38.192Z,17.27
2018-09-05T20:30:08.162Z,18.30
2018-09-05T20:32:39.021Z,17.77
2018-09-05T20:35:08.932Z,18.00
2018-09-05T20:37:39.042Z,19.60
2018-09-05T20:40:09.109Z,19.53
2018-09-05T20:42:38.945Z,18.50
2018-09-05T20:45:09.509Z,19.63
2018-09-05T20:47:40.135Z,21.40
2018-09-05T20:50:10.236Z,18.80
2018-09-05T20:52:40.058Z,19.33
2018-09-05T20:55:16.201Z,17.27
2018-09-05T20:58:01.725Z,18.60
2018-09-05T21:00:31.533Z,19.97
2018-09-05T21:03:01.268Z,18.07
2018-09-05T21:05:31.080Z,19.30
2018-09-05T21:08:01.001Z,20.80
2018-09-05T21:10:30.879Z,22.67
2018-09-05T21:13:00.595Z,21.43
2018-09-05T21:15:30.558Z,20.30
2018-09-05T21:18:00.394Z,20.53
2018-09-05T21:20:30.155Z,21.30
2018-09-05T21:23:00.103Z,21.17
2018-09-05T21:25:30.058Z,20.87
2018-09-05T21:28:00.275Z,21.67
2018-09-05T21:30:30.202Z,22.77
2018-09-05T21:33:00.976Z,24.10
2018-09-05T21:35:32.032Z,25.70
2018-09-05T21:38:01.804Z,25.43
2018-09-05T21:40:31.539Z,27.87
2018-09-05T21:43:01.573Z,29.60
2018-09-05T21:45:34.186Z,28.47
2018-09-05T21:48:06.346Z,30.67
2018-09-05T21:50:36.079Z,31.60
2018-09-05T21:53:06.513Z,33.43
2018-09-05T21:55:38.133Z,31.40
2018-09-05T21:58:08.268Z,33.23
2018-09-05T22:00:38.246Z,31.60
2018-09-05T22:03:08.052Z,30.80
2018-09-05T22:05:38.125Z,32.30
2018-09-05T22:08:08.011Z,31.03
2018-09-05T22:10:37.905Z,32.97
2018-09-05T22:13:07.765Z,30.33
2018-09-05T22:15:44.252Z,33.07
2018-09-05T22:18:14.040Z,33.07
2018-09-05T22:20:44.091Z,31.07
2018-09-05T22:23:13.922Z,31.87
2018-09-05T22:25:43.736Z,31.63
2018-09-05T22:28:13.452Z,32.90
2018-09-05T22:30:43.157Z,35.77
2018-09-05T22:33:12.914Z,35.30
2018-09-05T22:35:42.746Z,33.80
2018-09-05T22:38:12.442Z,34.13
2018-09-05T22:40:47.193Z,35.13
2018-09-05T22:43:35.051Z,35.30
2018-09-05T22:46:21.666Z,33.63
2018-09-05T22:51:33.858Z,36.40
2018-09-05T22:54:31.696Z,36.20
2018-09-05T22:59:25.187Z,37.43
2018-09-05T23:02:11.585Z,36.23
2018-09-05T23:09:08.165Z,36.10
2018-09-05T23:11:57.719Z,33.73
2018-09-05T23:15:42.698Z,32.33
2018-09-05T23:18:29.118Z,30.63
2018-09-05T23:21:15.707Z,33.30
2018-09-05T23:24:10.279Z,35.80
2018-09-05T23:26:40.031Z,38.23
2018-09-05T23:29:09.905Z,37.63
2018-09-05T23:31:39.850Z,39.00
2018-09-05T23:34:09.641Z,40.77
2018-09-05T23:36:39.360Z,35.67
2018-09-05T23:39:09.830Z,37.30
2018-09-05T23:41:39.538Z,35.73
2018-09-05T23:44:09.414Z,34.47
2018-09-05T23:46:39.182Z,35.40
2018-09-05T23:49:08.946Z,36.60
2018-09-05T23:51:38.653Z,31.63
2018-09-05T23:54:08.353Z,27.87
2018-09-05T23:56:38.103Z,28.50
2018-09-05T23:59:08.223Z,27.30
